createdAt,value
2019-03-19T00:02:10.996Z,99.90
2019-03-19T00:04:43.734Z,99.90
2019-03-19T00:07:16.909Z,99.90
2019-03-19T00:09:49.798Z,99.90
2019-03-19T00:12:22.665Z,99.90
2019-03-19T00:14:55.641Z,99.90
2019-03-19T00:17:28.599Z,99.90
2019-03-19T00:20:01.561Z,99.90
2019-03-19T00:22:34.639Z,99.90
2019-03-19T00:25:07.740Z,99.90
2019-03-19T00:27:40.716Z,99.90
2019-03-19T00:30:13.746Z,99.90
2019-03-19T00:32:46.697Z,99.90
2019-03-19T00:35:19.536Z,99.90
2019-03-19T00:37:52.396Z,99.90
2019-03-19T00:40:25.392Z,99.90
2019-03-19T00:42:58.554Z,99.90
2019-03-19T00:45:31.686Z,99.90
2019-03-19T00:48:04.611Z,99.90
2019-03-19T00:50:37.747Z,99.90
2019-03-19T00:53:10.700Z,99.90
2019-03-19T00:55:43.492Z,99.90
2019-03-19T00:58:16.328Z,99.90
2019-03-19T01:00:49.122Z,99.90
2019-03-19T01:03:22.167Z,99.90
2019-03-19T01:05:54.936Z,99.90
2019-03-19T01:08:27.796Z,99.90
2019-03-19T01:11:00.680Z,99.90
2019-03-19T01:13:33.502Z,99.90
2019-03-19T01:16:06.526Z,99.90
2019-03-19T01:18:39.569Z,99.90
2019-03-19T01:21:12.452Z,99.90
2019-03-19T01:23:45.571Z,99.90
2019-03-19T01:26:18.911Z,99.90
2019-03-19T01:28:51.841Z,99.90
2019-03-19T01:31:24.797Z,99.90
2019-03-19T01:33:58.131Z,99.90
2019-03-19T01:36:31.126Z,99.90
2019-03-19T01:39:05.587Z,99.90
2019-03-19T01:41:38.563Z,99.90
2019-03-19T01:44:12.370Z,99.90
2019-03-19T01:46:45.521Z,99.90
2019-03-19T01:49:18.736Z,99.90
2019-03-19T01:51:51.588Z,99.90
2019-03-19T01:54:24.515Z,99.90
2019-03-19T01:56:57.457Z,99.90
2019-03-19T01:59:30.302Z,99.90
2019-03-19T02:02:03.432Z,99.90
2019-03-19T02:04:36.233Z,99.90
2019-03-19T02:07:09.136Z,99.90
2019-03-19T02:09:42.029Z,99.90
2019-03-19T02:12:15.040Z,99.90
2019-03-19T02:14:48.271Z,99.90
2019-03-19T02:17:21.386Z,99.90
2019-03-19T02:19:54.477Z,99.90
2019-03-19T02:22:27.332Z,99.90
2019-03-19T02:25:00.444Z,99.90
2019-03-19T02:27:33.498Z,99.90
2019-03-19T02:30:07.817Z,99.90
2019-03-19T02:32:40.735Z,99.90
2019-03-19T02:35:13.684Z,99.90
2019-03-19T02:37:46.592Z,99.90
2019-03-19T02:40:19.540Z,99.90
2019-03-19T02:42:52.471Z,99.90
2019-03-19T02:45:25.388Z,99.90
2019-03-19T02:47:58.414Z,99.90
2019-03-19T02:50:31.203Z,99.90
2019-03-19T02:53:04.030Z,99.90
2019-03-19T02:55:36.877Z,99.90
2019-03-19T02:58:09.731Z,99.90
2019-03-19T03:00:42.689Z,99.90
2019-03-19T03:03:16.475Z,99.90
2019-03-19T03:05:49.271Z,99.90
2019-03-19T03:08:22.176Z,99.90
2019-03-19T03:10:55.117Z,99.90
2019-03-19T03:13:28.065Z,99.90
2019-03-19T03:16:01.129Z,99.90
2019-03-19T03:18:34.165Z,99.90
2019-03-19T03:21:06.984Z,99.90
2019-03-19T03:23:39.959Z,99.90
2019-03-19T03:26:12.840Z,99.90
2019-03-19T03:28:45.711Z,99.90
2019-03-19T03:31:18.788Z,99.90
2019-03-19T03:33:51.746Z,99.90
2019-03-19T03:36:24.664Z,99.90
2019-03-19T03:38:57.803Z,99.90
2019-03-19T03:41:31.229Z,99.90
2019-03-19T03:44:04.911Z,99.90
2019-03-19T03:46:37.716Z,99.90
2019-03-19T03:49:10.636Z,99.90
2019-03-19T03:51:43.627Z,99.90
2019-03-19T03:54:16.579Z,99.90
2019-03-19T03:57:01.170Z,99.90
2019-03-19T03:59:24.422Z,99.90
2019-03-19T04:01:57.692Z,99.90
2019-03-19T04:04:30.825Z,99.90
2019-03-19T04:07:03.859Z,99.90
2019-03-19T04:09:36.983Z,99.90
2019-03-19T04:12:09.876Z,99.90
2019-03-19T04:14:42.871Z,99.90
2019-03-19T04:17:15.798Z,99.90
2019-03-19T04:19:48.640Z,99.90
2019-03-19T04:22:21.659Z,99.90
2019-03-19T04:24:54.401Z,99.90
2019-03-19T04:27:27.328Z,99.90
2019-03-19T04:30:00.565Z,99.90
2019-03-19T04:32:33.553Z,99.90
2019-03-19T04:35:06.672Z,99.90
2019-03-19T04:37:39.915Z,99.90
2019-03-19T04:40:12.870Z,99.90
2019-03-19T04:42:46.049Z,99.90
2019-03-19T04:45:19.099Z,99.90
2019-03-19T04:47:52.342Z,99.90
2019-03-19T04:50:25.269Z,99.90
2019-03-19T04:52:58.096Z,99.90
2019-03-19T04:55:31.043Z,99.90
2019-03-19T04:58:04.098Z,99.90
2019-03-19T05:00:37.193Z,99.90
2019-03-19T05:03:10.308Z,99.90
2019-03-19T05:05:43.303Z,99.90
2019-03-19T05:08:16.395Z,99.90
2019-03-19T05:10:49.410Z,99.90
2019-03-19T05:13:22.244Z,99.90
2019-03-19T05:15:56.340Z,99.90
2019-03-19T05:18:31.295Z,99.90
2019-03-19T05:21:04.057Z,99.90
2019-03-19T05:23:36.913Z,99.90
2019-03-19T05:26:09.731Z,99.90
2019-03-19T05:28:42.535Z,99.90
2019-03-19T05:31:15.873Z,99.90
2019-03-19T05:33:48.996Z,99.90
2019-03-19T05:36:21.995Z,99.90
2019-03-19T05:38:55.001Z,99.90
2019-03-19T05:41:28.051Z,99.90
2019-03-19T05:44:01.156Z,99.90
2019-03-19T05:46:34.075Z,99.90
2019-03-19T05:49:07.037Z,99.90
2019-03-19T05:51:40.015Z,99.90
2019-03-19T05:54:12.981Z,99.90
2019-03-19T05:56:45.894Z,99.90
2019-03-19T05:59:18.862Z,99.90
2019-03-19T06:01:51.814Z,99.90
2019-03-19T06:04:24.846Z,99.90
2019-03-19T06:06:57.820Z,99.90
2019-03-19T06:09:30.894Z,99.90
2019-03-19T06:12:03.656Z,99.90
2019-03-19T06:14:37.075Z,99.90
2019-03-19T06:17:10.100Z,99.90
2019-03-19T06:19:43.091Z,99.90
2019-03-19T06:22:16.061Z,99.90
2019-03-19T06:24:49.201Z,99.90
2019-03-19T06:27:22.011Z,99.90
2019-03-19T06:29:55.225Z,99.90
2019-03-19T06:32:28.271Z,99.90
2019-03-19T06:35:03.383Z,99.90
2019-03-19T06:37:36.510Z,99.90
2019-03-19T06:40:11.575Z,99.90
2019-03-19T06:42:44.661Z,99.90
2019-03-19T06:45:17.764Z,99.90
2019-03-19T06:47:50.507Z,99.90
2019-03-19T06:50:23.619Z,99.90
2019-03-19T06:52:56.616Z,99.90
2019-03-19T06:55:29.486Z,99.90
2019-03-19T06:58:10.486Z,99.90
2019-03-19T07:00:37.273Z,99.90
2019-03-19T07:03:10.302Z,99.90
2019-03-19T07:05:43.255Z,99.90
2019-03-19T07:08:16.125Z,99.90
2019-03-19T07:10:49.146Z,99.90
2019-03-19T07:13:22.010Z,99.90
2019-03-19T07:15:56.151Z,99.90
2019-03-19T07:18:30.339Z,99.90
2019-03-19T07:21:03.459Z,99.90
2019-03-19T07:23:36.643Z,99.90
2019-03-19T07:26:09.677Z,99.90
2019-03-19T07:28:42.721Z,99.90
2019-03-19T07:31:15.832Z,99.90
2019-03-19T07:33:48.798Z,99.90
2019-03-19T07:36:21.701Z,99.90
2019-03-19T07:38:54.551Z,99.90
2019-03-19T07:41:27.562Z,99.90
2019-03-19T07:44:00.760Z,99.90
2019-03-19T07:46:33.716Z,99.90
2019-03-19T07:49:06.853Z,99.90
2019-03-19T07:51:39.648Z,99.90
2019-03-19T07:54:12.626Z,99.90
2019-03-19T07:56:45.495Z,99.90
2019-03-19T07:59:18.471Z,99.90
2019-03-19T08:01:52.523Z,99.90
2019-03-19T08:04:25.578Z,99.90
2019-03-19T08:06:58.820Z,99.90
2019-03-19T08:09:32.313Z,99.90
2019-03-19T08:12:05.362Z,99.90
2019-03-19T08:14:38.371Z,99.90
2019-03-19T08:17:11.451Z,99.90
2019-03-19T08:19:44.572Z,99.90
2019-03-19T08:22:17.644Z,99.90
2019-03-19T08:24:50.726Z,99.90
2019-03-19T08:27:24.742Z,99.90
2019-03-19T08:29:57.540Z,99.90
2019-03-19T08:32:30.652Z,99.90
2019-03-19T08:35:03.982Z,99.90
2019-03-19T08:37:36.932Z,99.90
2019-03-19T08:40:11.208Z,99.90
2019-03-19T08:42:44.211Z,99.90
2019-03-19T08:45:17.229Z,99.90
2019-03-19T08:47:50.077Z,99.90
2019-03-19T08:50:23.203Z,99.30
2019-03-19T08:52:56.234Z,98.60
2019-03-19T08:55:29.783Z,99.10
2019-03-19T08:58:02.778Z,98.20
2019-03-19T09:00:40.558Z,97.40
2019-03-19T09:03:13.913Z,96.50
2019-03-19T09:05:47.779Z,96.60
2019-03-19T09:08:21.838Z,96.00
2019-03-19T09:10:54.892Z,96.50
2019-03-19T09:13:28.207Z,96.10
2019-03-19T09:16:01.095Z,96.50
2019-03-19T09:18:34.068Z,96.30
2019-03-19T09:21:06.873Z,97.10
2019-03-19T09:23:40.003Z,95.40
2019-03-19T09:26:13.026Z,94.30
2019-03-19T09:28:45.895Z,94.00
2019-03-19T09:31:18.916Z,94.60
2019-03-19T09:33:51.855Z,94.70
2019-03-19T09:36:24.874Z,94.50
2019-03-19T09:38:58.170Z,92.60
2019-03-19T09:41:31.925Z,93.10
2019-03-19T09:44:04.974Z,92.00
2019-03-19T09:46:38.066Z,91.20
2019-03-19T09:49:11.039Z,88.10
2019-03-19T09:51:44.189Z,85.70
2019-03-19T09:54:17.019Z,86.40
2019-03-19T09:56:50.060Z,87.00
2019-03-19T09:59:27.209Z,85.70
2019-03-19T10:01:58.298Z,84.60
2019-03-19T10:04:31.493Z,81.60
2019-03-19T10:07:06.362Z,81.40
2019-03-19T10:09:40.159Z,79.40
2019-03-19T10:12:14.200Z,78.40
2019-03-19T10:14:47.015Z,78.60
2019-03-19T10:17:19.945Z,73.70
2019-03-19T10:19:52.823Z,72.90
2019-03-19T10:22:26.585Z,73.60
2019-03-19T10:24:59.740Z,74.10
2019-03-19T10:27:32.729Z,73.80
2019-03-19T10:30:09.461Z,73.70
2019-03-19T10:32:42.727Z,73.60
2019-03-19T10:35:16.182Z,77.80
2019-03-19T10:37:49.253Z,75.50
2019-03-19T10:40:22.351Z,73.40
2019-03-19T10:42:55.265Z,72.50
2019-03-19T10:45:28.279Z,73.20
2019-03-19T10:48:01.139Z,75.00
2019-03-19T10:50:34.212Z,74.40
2019-03-19T10:53:07.337Z,71.80
2019-03-19T10:55:40.213Z,72.80
2019-03-19T10:58:13.191Z,71.90
2019-03-19T11:00:46.119Z,69.20
2019-03-19T11:03:19.104Z,71.20
2019-03-19T11:05:51.923Z,71.10
2019-03-19T11:08:25.019Z,71.30
2019-03-19T11:10:57.770Z,75.50
2019-03-19T11:13:30.714Z,75.50
2019-03-19T11:16:03.781Z,77.50
2019-03-19T11:18:36.780Z,76.10
2019-03-19T11:21:12.332Z,75.00
2019-03-19T11:23:46.304Z,68.50
2019-03-19T11:26:19.335Z,66.80
2019-03-19T11:28:52.954Z,64.70
2019-03-19T11:31:26.059Z,68.40
2019-03-19T11:33:59.137Z,71.60
2019-03-19T11:36:32.059Z,72.30
2019-03-19T11:39:08.014Z,69.40
2019-03-19T11:41:41.304Z,67.40
2019-03-19T11:44:14.311Z,64.30
2019-03-19T11:46:47.475Z,65.70
2019-03-19T11:49:20.525Z,67.10
2019-03-19T11:51:53.622Z,64.90
2019-03-19T11:54:26.841Z,64.10
2019-03-19T11:57:00.717Z,62.70
2019-03-19T11:59:34.588Z,65.00
2019-03-19T12:02:07.565Z,65.00
2019-03-19T12:04:40.453Z,63.60
2019-03-19T12:07:13.578Z,60.90
2019-03-19T12:09:46.651Z,60.50
2019-03-19T12:12:19.627Z,61.60
2019-03-19T12:14:55.511Z,62.40
2019-03-19T12:17:28.521Z,59.50
2019-03-19T12:20:01.562Z,56.50
2019-03-19T12:22:34.575Z,59.20
2019-03-19T12:25:07.735Z,57.50
2019-03-19T12:27:40.700Z,59.50
2019-03-19T12:30:21.764Z,63.00
2019-03-19T12:32:49.347Z,61.20
2019-03-19T12:35:22.589Z,62.70
2019-03-19T12:37:55.711Z,60.90
2019-03-19T12:40:36.770Z,56.80
2019-03-19T12:43:04.466Z,57.70
2019-03-19T12:45:37.582Z,56.80
2019-03-19T12:48:10.609Z,58.20
2019-03-19T12:50:43.585Z,57.70
2019-03-19T12:53:16.867Z,55.40
2019-03-19T12:55:49.706Z,54.60
2019-03-19T12:58:22.751Z,58.20
2019-03-19T13:00:55.897Z,55.20
2019-03-19T13:03:29.019Z,54.50
2019-03-19T13:06:01.896Z,59.60
2019-03-19T13:08:35.056Z,61.50
2019-03-19T13:11:08.150Z,63.60
2019-03-19T13:13:41.331Z,62.20
2019-03-19T13:16:14.223Z,57.60
2019-03-19T13:18:47.171Z,55.20
2019-03-19T13:21:20.200Z,57.70
2019-03-19T13:23:53.176Z,58.20
2019-03-19T13:26:26.483Z,61.00
2019-03-19T13:28:59.327Z,59.60
2019-03-19T13:31:32.357Z,57.00
2019-03-19T13:34:05.342Z,53.50
2019-03-19T13:36:38.407Z,54.50
2019-03-19T13:39:11.215Z,59.10
2019-03-19T13:41:44.049Z,59.70
2019-03-19T13:44:16.971Z,57.40
2019-03-19T13:46:49.964Z,59.40
2019-03-19T13:49:22.920Z,57.70
2019-03-19T13:51:55.867Z,55.00
2019-03-19T13:54:28.963Z,54.10
2019-03-19T13:57:02.216Z,57.20
2019-03-19T13:59:36.176Z,59.30
2019-03-19T14:02:09.262Z,61.80
2019-03-19T14:04:43.716Z,57.00
2019-03-19T14:07:16.807Z,57.40
2019-03-19T14:09:49.686Z,56.70
2019-03-19T14:12:22.542Z,55.70
2019-03-19T14:14:55.713Z,54.90
2019-03-19T14:17:28.817Z,59.00
2019-03-19T14:20:01.713Z,56.50
2019-03-19T14:22:35.771Z,54.30
2019-03-19T14:25:09.261Z,53.20
2019-03-19T14:27:42.557Z,51.90
2019-03-19T14:30:16.489Z,52.70
2019-03-19T14:32:49.502Z,56.40
2019-03-19T14:35:36.598Z,56.90
2019-03-19T14:38:00.998Z,58.90
2019-03-19T14:40:34.282Z,57.80
2019-03-19T14:43:07.424Z,54.10
2019-03-19T14:45:40.470Z,54.10
2019-03-19T14:48:13.524Z,57.20
2019-03-19T14:50:46.563Z,59.20
2019-03-19T14:53:19.763Z,58.80
2019-03-19T14:55:54.591Z,60.00
2019-03-19T14:58:28.553Z,60.90
2019-03-19T15:01:01.623Z,59.80
2019-03-19T15:03:34.603Z,56.90
2019-03-19T15:06:07.853Z,56.50
2019-03-19T15:09:00.133Z,52.90
2019-03-19T15:11:33.033Z,49.30
2019-03-19T15:14:06.307Z,49.20
2019-03-19T15:16:39.408Z,50.60
2019-03-19T15:19:12.479Z,52.00
2019-03-19T15:21:53.098Z,52.50
2019-03-19T15:24:26.109Z,48.50
2019-03-19T15:26:59.073Z,46.80
2019-03-19T15:29:31.977Z,42.80
2019-03-19T15:32:04.936Z,43.10
2019-03-19T15:34:38.834Z,45.50
2019-03-19T15:37:11.780Z,43.10
2019-03-19T15:39:44.714Z,47.00
2019-03-19T15:42:17.558Z,48.10
2019-03-19T15:44:50.570Z,47.30
2019-03-19T15:47:23.598Z,51.00
2019-03-19T15:49:56.569Z,51.90
2019-03-19T15:52:29.572Z,54.90
2019-03-19T15:55:02.547Z,55.10
2019-03-19T15:57:35.343Z,55.70
2019-03-19T16:00:11.459Z,60.60
2019-03-19T16:02:44.650Z,63.00
2019-03-19T16:05:17.795Z,63.60
2019-03-19T16:07:50.655Z,58.60
2019-03-19T16:10:23.618Z,55.80
2019-03-19T16:12:56.675Z,55.60
2019-03-19T16:15:29.745Z,53.90
2019-03-19T16:18:02.844Z,52.50
2019-03-19T16:20:36.048Z,55.50
2019-03-19T16:23:09.259Z,59.80
2019-03-19T16:25:42.449Z,63.80
2019-03-19T16:28:15.275Z,67.30
2019-03-19T16:30:48.319Z,70.20
2019-03-19T16:33:21.680Z,73.00
2019-03-19T16:35:54.598Z,75.30
2019-03-19T16:38:27.584Z,76.90
2019-03-19T16:41:01.031Z,77.70
2019-03-19T16:43:34.425Z,78.30
2019-03-19T16:46:07.344Z,79.00
2019-03-19T16:48:49.345Z,81.00
2019-03-19T16:51:22.237Z,81.00
2019-03-19T16:53:55.074Z,81.70
2019-03-19T16:56:27.929Z,82.40
2019-03-19T16:59:00.994Z,83.40
2019-03-19T17:01:34.099Z,84.00
2019-03-19T17:04:06.986Z,84.40
2019-03-19T17:06:39.879Z,84.30
2019-03-19T17:09:12.845Z,84.20
2019-03-19T17:11:45.619Z,85.30
2019-03-19T17:14:18.773Z,86.20
2019-03-19T17:16:51.956Z,86.50
2019-03-19T17:19:25.071Z,87.10
2019-03-19T17:21:58.010Z,87.10
2019-03-19T17:24:31.051Z,87.70
2019-03-19T17:27:06.136Z,87.40
2019-03-19T17:29:39.124Z,87.80
2019-03-19T17:32:13.112Z,88.70
2019-03-19T17:34:46.596Z,88.50
2019-03-19T17:37:19.605Z,89.90
2019-03-19T17:39:52.335Z,90.30
2019-03-19T17:42:25.165Z,89.70
2019-03-19T17:44:58.041Z,90.10
2019-03-19T17:47:30.959Z,90.10
2019-03-19T17:50:05.614Z,90.90
2019-03-19T17:52:38.590Z,91.50
2019-03-19T17:55:11.551Z,91.80
2019-03-19T17:57:44.527Z,92.00
2019-03-19T18:00:21.513Z,92.70
2019-03-19T18:02:54.635Z,92.70
2019-03-19T18:05:27.731Z,93.20
2019-03-19T18:08:01.056Z,93.50
2019-03-19T18:10:33.949Z,93.90
2019-03-19T18:13:07.171Z,94.10
2019-03-19T18:15:40.192Z,94.40
2019-03-19T18:18:13.185Z,94.30
2019-03-19T18:20:46.213Z,94.60
2019-03-19T18:23:19.468Z,94.60
2019-03-19T18:25:52.685Z,95.00
2019-03-19T18:28:25.617Z,95.20
2019-03-19T18:30:58.775Z,95.30
2019-03-19T18:33:32.036Z,95.50
2019-03-19T18:36:05.112Z,95.70
2019-03-19T18:38:38.157Z,96.10
2019-03-19T18:41:11.088Z,95.70
2019-03-19T18:43:44.021Z,96.00
2019-03-19T18:46:17.325Z,96.40
2019-03-19T18:48:50.146Z,96.70
2019-03-19T18:51:23.179Z,96.90
2019-03-19T18:53:56.197Z,97.10
2019-03-19T18:56:29.303Z,97.60
2019-03-19T18:59:02.510Z,97.70
2019-03-19T19:01:36.776Z,97.80
2019-03-19T19:04:09.712Z,97.90
2019-03-19T19:06:42.730Z,97.90
2019-03-19T19:09:15.643Z,98.00
2019-03-19T19:11:48.728Z,98.10
2019-03-19T19:14:21.699Z,98.50
2019-03-19T19:16:54.734Z,98.70
2019-03-19T19:19:27.803Z,98.90
2019-03-19T19:22:00.887Z,98.90
2019-03-19T19:24:33.967Z,99.30
2019-03-19T19:27:07.908Z,99.10
2019-03-19T19:29:40.898Z,99.50
2019-03-19T19:32:13.903Z,99.70
2019-03-19T19:34:46.817Z,99.90
2019-03-19T19:37:20.146Z,99.90
2019-03-19T19:39:53.471Z,99.90
2019-03-19T19:42:26.465Z,99.90
2019-03-19T19:44:59.530Z,99.90
2019-03-19T19:47:32.563Z,99.90
2019-03-19T19:50:06.840Z,99.90
2019-03-19T19:52:39.861Z,99.90
2019-03-19T19:55:13.305Z,99.90
2019-03-19T19:57:46.844Z,99.90
2019-03-19T20:00:20.151Z,99.90
2019-03-19T20:02:53.166Z,99.90
2019-03-19T20:05:26.334Z,99.90
2019-03-19T20:07:59.428Z,99.90
2019-03-19T20:10:32.364Z,99.90
2019-03-19T20:13:05.333Z,99.90
2019-03-19T20:15:38.213Z,99.90
2019-03-19T20:18:11.218Z,99.90
2019-03-19T20:20:44.462Z,99.90
2019-03-19T20:23:17.589Z,99.90
2019-03-19T20:25:50.573Z,99.90
2019-03-19T20:28:23.690Z,99.90
2019-03-19T20:30:56.731Z,99.90
2019-03-19T20:33:29.762Z,99.90
2019-03-19T20:36:03.792Z,99.90
2019-03-19T20:38:36.938Z,99.90
2019-03-19T20:41:10.428Z,99.90
2019-03-19T20:43:43.452Z,99.90
2019-03-19T20:46:16.941Z,99.90
2019-03-19T20:48:50.043Z,99.90
2019-03-19T20:51:22.889Z,99.90
2019-03-19T20:53:56.204Z,99.90
2019-03-19T20:56:29.262Z,99.90
2019-03-19T20:59:02.409Z,99.90
2019-03-19T21:01:35.239Z,99.90
2019-03-19T21:04:08.303Z,99.90
2019-03-19T21:06:41.189Z,99.90
2019-03-19T21:09:14.508Z,99.90
2019-03-19T21:11:47.575Z,99.90
2019-03-19T21:14:20.469Z,99.90
2019-03-19T21:16:53.934Z,99.90
2019-03-19T21:19:27.119Z,99.90
2019-03-19T21:22:00.726Z,99.90
2019-03-19T21:24:33.859Z,99.90
2019-03-19T21:27:07.159Z,99.90
2019-03-19T21:29:39.982Z,99.90
2019-03-19T21:32:13.330Z,99.90
2019-03-19T21:34:46.765Z,99.90
2019-03-19T21:37:19.822Z,99.90
2019-03-19T21:39:53.197Z,99.90
2019-03-19T21:42:27.443Z,99.90
2019-03-19T21:45:00.450Z,99.90
2019-03-19T21:47:33.678Z,99.90
2019-03-19T21:50:08.647Z,99.90
2019-03-19T21:52:41.835Z,99.90
2019-03-19T21:55:14.993Z,99.90
2019-03-19T21:57:48.919Z,99.90
2019-03-19T22:00:22.217Z,99.90
2019-03-19T22:02:54.972Z,99.90
2019-03-19T22:05:28.019Z,99.90
2019-03-19T22:08:01.002Z,99.90
2019-03-19T22:10:34.120Z,99.90
2019-03-19T22:13:07.222Z,99.90
2019-03-19T22:15:40.050Z,99.90
2019-03-19T22:18:13.458Z,99.90
2019-03-19T22:20:47.602Z,99.90
2019-03-19T22:23:20.630Z,99.90
2019-03-19T22:25:54.058Z,99.90
2019-03-19T22:28:26.985Z,99.90
2019-03-19T22:30:59.783Z,99.90
2019-03-19T22:33:33.530Z,99.90
2019-03-19T22:36:06.878Z,99.90
2019-03-19T22:38:40.949Z,99.90
2019-03-19T22:41:13.813Z,99.90
2019-03-19T22:43:47.052Z,99.90
2019-03-19T22:46:21.987Z,99.90
2019-03-19T22:48:54.998Z,99.90
2019-03-19T22:51:29.035Z,99.90
2019-03-19T22:54:02.047Z,99.90
2019-03-19T22:56:35.115Z,99.90
2019-03-19T22:59:08.210Z,99.90
2019-03-19T23:01:41.038Z,99.90
2019-03-19T23:04:14.020Z,99.90
2019-03-19T23:06:47.239Z,99.90
2019-03-19T23:09:20.766Z,99.90
2019-03-19T23:11:53.825Z,99.90
2019-03-19T23:14:27.019Z,99.90
2019-03-19T23:16:59.944Z,99.90
2019-03-19T23:19:32.929Z,99.90
2019-03-19T23:22:05.905Z,99.90
2019-03-19T23:24:38.976Z,99.90
2019-03-19T23:27:11.774Z,99.90
2019-03-19T23:29:45.013Z,99.90
2019-03-19T23:32:18.166Z,99.90
2019-03-19T23:34:51.151Z,99.90
2019-03-19T23:37:24.343Z,99.90
2019-03-19T23:39:57.696Z,99.90
2019-03-19T23:42:30.796Z,99.90
2019-03-19T23:45:04.570Z,99.90
2019-03-19T23:47:37.541Z,99.90
2019-03-19T23:50:11.621Z,99.90
2019-03-19T23:52:44.521Z,99.90
2019-03-19T23:55:17.839Z,99.90
2019-03-19T23:57:52.519Z,99.90
